Time;durP1;ratioP1;P1;durP2;ratioP2;P2;SDS_P1;SDS_P2;PMS_P1;PMS_P2;Temp;Humidity;BMP_temperature;BMP_pressure;BME280_temperature;BME280_humidity;BME280_pressure;Samples;Min_cycle;Max_cycle;Signal;HPM_P1;HPM_P2
2022/07/23 00:00:07;;;;;;;;;;;;;;;24.33;54.96;100231.66;5073373;28;20256;-66
2022/07/23 00:02:32;;;;;;;;;;;;;;;24.32;54.90;100236.31;5073715;28;19920;-67
2022/07/23 00:04:57;;;;;;;;;;;;;;;24.32;54.57;100238.25;5073363;28;20063;-67
2022/07/23 00:07:23;;;;;;;;;;;;;;;24.27;54.66;100241.81;5089784;28;19916;-66
2022/07/23 00:09:48;;;;;;;;;;;;;;;24.31;54.62;100248.31;5093855;28;19923;-66
2022/07/23 00:12:13;;;;;;;;;;;;;;;24.31;54.15;100242.06;5093520;28;20021;-66
2022/07/23 00:14:39;;;;;;;;;;;;;;;24.31;54.51;100242.06;5093511;28;19916;-66
2022/07/23 00:17:04;;;;;;;;;;;;;;;24.31;54.45;100239.31;5093790;28;19917;-66
2022/07/23 00:19:29;;;;;;;;;;;;;;;24.29;54.19;100256.00;5093696;28;19916;-66
2022/07/23 00:21:54;;;;;;;;;;;;;;;24.31;54.29;100258.44;5093347;28;19923;-66
2022/07/23 00:24:20;;;;;;;;;;;;;;;24.29;54.01;100266.91;5093072;28;19968;-66
2022/07/23 00:26:45;;;;;;;;;;;;;;;24.30;54.09;100278.66;5093719;28;20007;-66
2022/07/23 00:29:10;;;;;;;;;;;;;;;24.27;54.10;100277.31;5093530;28;20416;-67
2022/07/23 00:31:35;;;;;;;;;;;;;;;24.29;54.02;100266.09;5093322;28;19919;-66
2022/07/23 00:34:01;;;;;;;;;;;;;;;24.28;54.17;100253.53;5093568;28;19920;-67
2022/07/23 00:36:26;;;;;;;;;;;;;;;24.25;54.25;100243.19;5094129;28;19943;-66
2022/07/23 00:38:52;;;;;;;;;;;;;;;24.27;54.12;100255.47;5093539;28;19927;-66
2022/07/23 00:41:17;;;;;;;;;;;;;;;24.28;53.77;100259.00;5093570;28;19931;-66
2022/07/23 00:43:42;;;;;;;;;;;;;;;24.28;53.83;100253.53;5093568;28;19917;-66
2022/07/23 00:46:08;;;;;;;;;;;;;;;24.28;53.69;100250.81;5093165;28;19968;-66
2022/07/23 00:48:33;;;;;;;;;;;;;;;24.28;53.64;100242.63;5093412;28;19916;-66
2022/07/23 00:50:58;;;;;;;;;;;;;;;24.27;53.68;100241.00;5093450;28;20353;-66
2022/07/23 00:53:23;;;;;;;;;;;;;;;24.27;53.82;100249.19;5095046;28;19916;-66
2022/07/23 00:55:49;;;;;;;;;;;;;;;24.28;53.74;100256.28;5097243;28;20394;-66
2022/07/23 00:58:14;;;;;;;;;;;;;;;24.28;53.34;100253.53;5096892;28;20321;-66
2022/07/23 01:00:39;;;;;;;;;;;;;;;24.29;53.27;100258.72;5095622;28;19916;-66
2022/07/23 01:03:05;;;;;;;;;;;;;;;24.26;53.28;100250.28;5097073;28;19916;-66
2022/07/23 01:05:30;;;;;;;;;;;;;;;24.24;53.28;100242.38;5096741;28;19916;-66
2022/07/23 01:07:55;;;;;;;;;;;;;;;24.26;53.16;100242.91;5076732;28;19924;-66
2022/07/23 01:10:33;;;;;;;;;;;;;;;24.26;53.40;100233.91;5075446;28;19920;-66
2022/07/23 01:13:08;;;;;;;;;;;;;;;24.25;53.28;100238.56;5076567;28;19920;-66
2022/07/23 01:15:33;;;;;;;;;;;;;;;24.27;53.22;100232.81;5076204;28;19916;-66
2022/07/23 01:17:59;;;;;;;;;;;;;;;24.26;52.81;100222.97;5076494;28;19969;-66
2022/07/23 01:20:24;;;;;;;;;;;;;;;24.23;53.21;100218.88;5076155;28;19916;-66
2022/07/23 01:22:49;;;;;;;;;;;;;;;24.26;52.94;100220.25;5076020;28;19917;-67
2022/07/23 01:25:15;;;;;;;;;;;;;;;24.24;52.72;100225.97;5075930;28;19932;-67
2022/07/23 01:27:40;;;;;;;;;;;;;;;24.24;52.85;100230.63;5076484;28;19916;-67
2022/07/23 01:30:05;;;;;;;;;;;;;;;24.24;52.78;100225.97;5074681;28;19916;-67
2022/07/23 01:32:31;;;;;;;;;;;;;;;24.24;52.65;100225.19;5076261;28;19927;-67
2022/07/23 01:34:56;;;;;;;;;;;;;;;24.23;52.71;100235.25;5075841;28;20018;-67
2022/07/23 01:37:21;;;;;;;;;;;;;;;24.23;52.56;100239.91;5076223;28;19921;-67
2022/07/23 01:39:47;;;;;;;;;;;;;;;24.23;52.64;100240.72;5076084;28;20326;-67
2022/07/23 01:42:12;;;;;;;;;;;;;;;24.24;52.36;100255.22;5075741;28;19969;-67
2022/07/23 01:44:37;;;;;;;;;;;;;;;24.22;52.09;100269.16;5075691;28;20264;-66
2022/07/23 01:47:02;;;;;;;;;;;;;;;24.24;52.24;100260.69;5075890;28;19969;-66
2022/07/23 01:49:28;;;;;;;;;;;;;;;24.23;52.31;100218.88;5075936;28;20279;-66
2022/07/23 01:52:02;;;;;;;;;;;;;;;24.23;52.19;100201.69;5075518;28;19920;-66
2022/07/23 01:54:28;;;;;;;;;;;;;;;24.22;52.25;100219.19;5075628;28;19970;-66
2022/07/23 01:56:53;;;;;;;;;;;;;;;24.21;52.13;100223.00;5075480;28;19963;-66
2022/07/23 01:59:18;;;;;;;;;;;;;;;24.19;52.22;100202.25;5075760;28;19916;-66
2022/07/23 02:01:44;;;;;;;;;;;;;;;24.20;52.27;100197.63;5075692;28;20426;-66
2022/07/23 02:04:09;;;;;;;;;;;;;;;24.21;52.21;100169.19;5074736;28;19916;-66
2022/07/23 02:06:37;;;;;;;;;;;;;;;24.20;52.21;100153.94;5083227;28;19916;-66
2022/07/23 02:09:03;;;;;;;;;;;;;;;24.22;52.16;100140.00;5095756;28;19916;-66
2022/07/23 02:11:28;;;;;;;;;;;;;;;24.22;52.28;100134.53;5095501;28;20071;-67
2022/07/23 02:13:53;;;;;;;;;;;;;;;24.21;52.38;100139.16;5096250;28;19916;-67
2022/07/23 02:16:18;;;;;;;;;;;;;;;24.22;52.16;100134.53;5095389;28;19916;-67
2022/07/23 02:18:44;;;;;;;;;;;;;;;24.21;52.13;100127.44;5095673;28;19924;-67
2022/07/23 02:21:09;;;;;;;;;;;;;;;24.20;52.34;100121.19;5095306;28;20010;-67
2022/07/23 02:23:35;;;;;;;;;;;;;;;24.22;52.30;100129.09;5095405;28;19916;-66
2022/07/23 02:26:00;;;;;;;;;;;;;;;24.22;52.18;100135.34;5095274;28;19920;-66
2022/07/23 02:28:25;;;;;;;;;;;;;;;24.22;52.48;100140.00;5095147;28;20359;-66
2022/07/23 02:30:50;;;;;;;;;;;;;;;24.22;52.53;100142.75;5095124;28;19943;-66
2022/07/23 02:33:16;;;;;;;;;;;;;;;24.21;52.77;100133.72;5095345;28;20015;-66
2022/07/23 02:35:41;;;;;;;;;;;;;;;24.21;52.85;100125.53;5095248;28;20362;-66
2022/07/23 02:38:06;;;;;;;;;;;;;;;24.21;52.85;100108.34;5095176;28;19978;-66
2022/07/23 02:40:31;;;;;;;;;;;;;;;24.20;52.43;100104.78;5094869;28;20366;-66
2022/07/23 02:42:57;;;;;;;;;;;;;;;24.19;52.67;100109.41;5095114;28;19949;-66
2022/07/23 02:45:22;;;;;;;;;;;;;;;24.21;52.60;100105.59;5094772;28;19916;-66
2022/07/23 02:47:47;;;;;;;;;;;;;;;24.18;52.76;100105.06;5094938;28;19916;-66
2022/07/23 02:50:12;;;;;;;;;;;;;;;24.19;52.92;100109.41;5094691;28;19977;-66
2022/07/23 02:52:38;;;;;;;;;;;;;;;24.19;53.13;100114.88;5095526;28;19967;-66
2022/07/23 02:55:03;;;;;;;;;;;;;;;24.21;52.89;100121.97;5094851;28;19920;-66
2022/07/23 02:57:29;;;;;;;;;;;;;;;24.19;53.39;100114.88;5094625;28;19916;-67
2022/07/23 02:59:54;;;;;;;;;;;;;;;24.20;53.44;100113.00;5094503;28;19916;-67
2022/07/23 03:02:19;;;;;;;;;;;;;;;24.22;53.15;100118.16;5094834;28;19916;-67
2022/07/23 03:04:44;;;;;;;;;;;;;;;24.22;53.33;100124.44;5094459;28;20392;-66
2022/07/23 03:07:10;;;;;;;;;;;;;;;24.21;53.26;100144.63;5082877;28;20420;-66
2022/07/23 03:09:35;;;;;;;;;;;;;;;24.21;53.37;100146.56;5074428;28;19917;-66
2022/07/23 03:12:00;;;;;;;;;;;;;;;24.22;53.38;100156.38;5074381;28;20409;-67
2022/07/23 03:14:27;;;;;;;;;;;;;;;24.22;53.64;100156.38;5074000;28;20011;-66
2022/07/23 03:16:53;;;;;;;;;;;;;;;24.21;53.77;100154.75;5074112;28;19995;-66
2022/07/23 03:19:18;;;;;;;;;;;;;;;24.21;53.75;100150.09;5073885;28;20367;-66
2022/07/23 03:21:43;;;;;;;;;;;;;;;24.19;53.62;100147.66;5074190;28;19926;-66
2022/07/23 03:24:09;;;;;;;;;;;;;;;24.20;53.41;100143.03;5073801;28;19928;-66
2022/07/23 03:26:34;;;;;;;;;;;;;;;24.19;53.81;100147.66;5074093;28;20004;-66
2022/07/23 03:29:01;;;;;;;;;;;;;;;24.21;53.76;100143.81;5073990;28;20011;-66
2022/07/23 03:31:26;;;;;;;;;;;;;;;24.18;53.70;100146.03;5074076;28;19916;-66
2022/07/23 03:33:51;;;;;;;;;;;;;;;24.21;53.95;100143.81;5074060;28;20286;-66
2022/07/23 03:36:17;;;;;;;;;;;;;;;24.19;53.86;100147.66;5073777;28;19916;-66
2022/07/23 03:38:42;;;;;;;;;;;;;;;24.20;54.18;100140.28;5074016;28;19924;-66
2022/07/23 03:41:07;;;;;;;;;;;;;;;24.19;54.13;100142.19;5073899;28;20304;-66
2022/07/23 03:43:33;;;;;;;;;;;;;;;24.19;54.13;100142.19;5073980;28;19970;-66
2022/07/23 03:45:58;;;;;;;;;;;;;;;24.18;54.23;100140.56;5073887;28;20408;-66
2022/07/23 03:48:23;;;;;;;;;;;;;;;24.18;54.13;100135.09;5073911;28;19916;-66
2022/07/23 03:50:48;;;;;;;;;;;;;;;24.18;54.16;100124.19;5073767;28;20378;-66
2022/07/23 03:53:14;;;;;;;;;;;;;;;24.19;54.13;100116.81;5073805;28;19920;-66
2022/07/23 03:55:39;;;;;;;;;;;;;;;24.18;54.08;100135.09;5072225;28;19922;-66
2022/07/23 03:58:04;;;;;;;;;;;;;;;24.18;54.24;100148.75;5073454;28;19917;-66
2022/07/23 04:00:29;;;;;;;;;;;;;;;24.19;53.96;100164.03;5073510;28;19975;-67
2022/07/23 04:02:55;;;;;;;;;;;;;;;24.19;54.30;100164.03;5073356;28;19917;-67
2022/07/23 04:05:20;;;;;;;;;;;;;;;24.17;54.17;100182.63;5073761;28;19969;-67
2022/07/23 04:07:45;;;;;;;;;;;;;;;24.18;54.24;100178.78;5089460;28;19923;-67
2022/07/23 04:10:10;;;;;;;;;;;;;;;24.19;54.34;100185.88;5093830;28;19916;-67
2022/07/23 04:12:36;;;;;;;;;;;;;;;24.18;54.58;100162.41;5093548;28;20380;-67
2022/07/23 04:15:01;;;;;;;;;;;;;;;24.18;54.33;100156.94;5093443;28;20014;-67
2022/07/23 04:17:26;;;;;;;;;;;;;;;24.17;54.46;100165.41;5093797;28;19960;-67
2022/07/23 04:19:51;;;;;;;;;;;;;;;24.18;54.20;100156.94;5093641;28;20381;-67
2022/07/23 04:22:17;;;;;;;;;;;;;;;24.18;54.35;100123.34;5093772;28;19959;-67
2022/07/23 04:24:42;;;;;;;;;;;;;;;24.16;54.28;100114.63;5093331;28;20388;-67
2022/07/23 04:27:07;;;;;;;;;;;;;;;24.16;54.38;100058.13;5093269;28;19977;-67
2022/07/23 04:29:32;;;;;;;;;;;;;;;24.14;54.18;100022.09;5096976;28;19916;-67
2022/07/23 04:31:58;;;;;;;;;;;;;;;24.15;54.15;100014.75;5097717;28;19916;-67
2022/07/23 04:34:23;;;;;;;;;;;;;;;24.14;54.30;100005.72;5097669;28;19916;-67
2022/07/23 04:36:49;;;;;;;;;;;;;;;24.14;54.39;99992.06;5097583;28;19917;-67
2022/07/23 04:39:14;;;;;;;;;;;;;;;24.16;54.25;99983.59;5097229;28;20317;-67
2022/07/23 04:41:39;;;;;;;;;;;;;;;24.15;54.42;99988.25;5097872;28;19916;-66
2022/07/23 04:44:05;;;;;;;;;;;;;;;24.16;53.91;99995.34;5097396;28;19916;-66
2022/07/23 04:46:30;;;;;;;;;;;;;;;24.16;54.41;99998.09;5097399;28;20350;-66
2022/07/23 04:48:55;;;;;;;;;;;;;;;24.16;54.55;99983.59;5096900;28;19916;-66
2022/07/23 04:51:20;;;;;;;;;;;;;;;24.15;54.49;99982.78;5097384;28;19924;-66
2022/07/23 04:53:46;;;;;;;;;;;;;;;24.17;54.37;99990.69;5097212;28;20366;-66
2022/07/23 04:56:11;;;;;;;;;;;;;;;24.16;54.24;100008.16;5096892;28;19927;-67
2022/07/23 04:58:36;;;;;;;;;;;;;;;24.16;54.70;100000.81;5096797;28;19923;-67
2022/07/23 05:01:01;;;;;;;;;;;;;;;24.16;54.52;99999.97;5097066;28;19920;-67
2022/07/23 05:03:27;;;;;;;;;;;;;;;24.15;54.55;100001.91;5097057;28;19924;-67
2022/07/23 05:05:52;;;;;;;;;;;;;;;24.16;54.60;100010.91;5097024;28;20322;-67
2022/07/23 05:08:17;;;;;;;;;;;;;;;24.15;54.68;100004.63;5077032;28;20271;-67
2022/07/23 05:10:43;;;;;;;;;;;;;;;24.16;54.71;100016.34;5075434;28;19977;-67
2022/07/23 05:13:08;;;;;;;;;;;;;;;24.16;54.66;100006.28;5076588;28;19921;-67
2022/07/23 05:15:33;;;;;;;;;;;;;;;24.17;54.63;100024.25;5076784;28;19928;-67
2022/07/23 05:17:58;;;;;;;;;;;;;;;24.17;54.62;100029.72;5076512;28;19995;-67
2022/07/23 05:20:24;;;;;;;;;;;;;;;24.18;54.18;100036.81;5076249;28;20393;-67
2022/07/23 05:22:49;;;;;;;;;;;;;;;24.19;54.42;100032.16;5076131;28;19916;-67
2022/07/23 05:25:14;;;;;;;;;;;;;;;24.18;54.58;100031.38;5076105;28;19932;-67
2022/07/23 05:27:40;;;;;;;;;;;;;;;24.18;54.84;100030.53;5076331;28;19916;-67
2022/07/23 05:30:05;;;;;;;;;;;;;;;24.18;54.73;100030.53;5075980;28;20310;-67
2022/07/23 05:32:31;;;;;;;;;;;;;;;24.18;54.75;100031.38;5074924;28;19920;-67
2022/07/23 05:34:56;;;;;;;;;;;;;;;24.18;54.73;100030.53;5075894;28;19951;-67
2022/07/23 05:37:22;;;;;;;;;;;;;;;24.17;54.48;100037.91;5076204;28;19921;-67
2022/07/23 05:39:47;;;;;;;;;;;;;;;24.16;54.74;100028.13;5074886;28;20371;-67
2022/07/23 05:42:12;;;;;;;;;;;;;;;24.14;54.61;100029.47;5076176;28;19916;-67
2022/07/23 05:44:37;;;;;;;;;;;;;;;24.13;54.54;100034.13;5076151;28;20323;-67
2022/07/23 05:47:03;;;;;;;;;;;;;;;24.14;54.68;100030.28;5076075;28;20011;-67
2022/07/23 05:49:28;;;;;;;;;;;;;;;24.15;55.12;100022.94;5075779;28;20371;-67
2022/07/23 05:51:53;;;;;;;;;;;;;;;24.13;55.48;100039.59;5075746;28;19985;-67
2022/07/23 05:54:19;;;;;;;;;;;;;;;24.14;54.98;100033.03;5076415;28;19932;-67
2022/07/23 05:56:44;;;;;;;;;;;;;;;24.16;54.98;100032.72;5076023;28;20335;-67
2022/07/23 05:59:09;;;;;;;;;;;;;;;24.12;55.16;100032.50;5076007;28;19917;-67
2022/07/23 06:01:34;;;;;;;;;;;;;;;24.14;54.97;100034.94;5074587;28;20292;-67
2022/07/23 06:04:00;;;;;;;;;;;;;;;24.14;55.16;100038.47;5075901;28;20018;-67
2022/07/23 06:06:25;;;;;;;;;;;;;;;24.15;55.33;100037.38;5078905;28;19927;-67
2022/07/23 06:08:50;;;;;;;;;;;;;;;24.12;55.09;100032.50;5095936;28;19922;-67
2022/07/23 06:11:15;;;;;;;;;;;;;;;24.14;55.60;100041.22;5095726;28;20381;-67
2022/07/23 06:13:41;;;;;;;;;;;;;;;24.15;55.45;100042.84;5095977;28;19946;-67
2022/07/23 06:16:06;;;;;;;;;;;;;;;24.16;55.23;100041.75;5095840;28;19939;-66
2022/07/23 06:18:31;;;;;;;;;;;;;;;24.17;55.24;100035.19;5095411;28;19920;-65
2022/07/23 06:20:57;;;;;;;;;;;;;;;24.16;55.07;100035.47;5095535;28;19917;-65
2022/07/23 06:23:22;;;;;;;;;;;;;;;24.19;55.50;100032.16;5095165;28;19946;-67
2022/07/23 06:25:47;;;;;;;;;;;;;;;24.17;55.51;100029.72;5095434;28;19999;-67
2022/07/23 06:28:12;;;;;;;;;;;;;;;24.18;55.79;100025.91;5095358;28;20365;-67
2022/07/23 06:30:38;;;;;;;;;;;;;;;24.17;55.79;100029.72;5095103;28;19916;-67
2022/07/23 06:33:03;;;;;;;;;;;;;;;24.18;55.46;100031.38;5095093;28;19916;-67
2022/07/23 06:35:28;;;;;;;;;;;;;;;24.15;56.03;100036.59;5095307;28;19923;-67
2022/07/23 06:37:54;;;;;;;;;;;;;;;24.17;55.63;100034.38;5095226;28;19916;-67
2022/07/23 06:40:20;;;;;;;;;;;;;;;24.17;55.50;100024.25;5095294;28;20361;-67
2022/07/23 06:42:45;;;;;;;;;;;;;;;24.17;55.90;100028.91;5094885;28;19963;-67
2022/07/23 06:45:10;;;;;;;;;;;;;;;24.17;55.61;100029.72;5095135;28;19916;-67
2022/07/23 06:47:35;;;;;;;;;;;;;;;24.19;55.54;100032.97;5094708;28;20317;-67
2022/07/23 06:50:01;;;;;;;;;;;;;;;24.19;55.62;100026.72;5095026;28;19920;-67
2022/07/23 06:52:26;;;;;;;;;;;;;;;24.16;55.76;100032.72;5094229;28;20293;-67
2022/07/23 06:54:52;;;;;;;;;;;;;;;24.18;55.71;100031.38;5094961;28;19919;-67
2022/07/23 06:57:17;;;;;;;;;;;;;;;24.17;56.04;100037.91;5094617;28;19916;-67
2022/07/23 06:59:42;;;;;;;;;;;;;;;24.18;55.97;100036.81;5094980;28;20011;-67
2022/07/23 07:02:07;;;;;;;;;;;;;;;24.19;55.65;100032.16;5094525;28;20235;-67
2022/07/23 07:04:33;;;;;;;;;;;;;;;24.19;56.01;100034.91;5094563;28;20007;-67
2022/07/23 07:06:58;;;;;;;;;;;;;;;24.16;56.30;100032.72;5086975;28;19916;-67
2022/07/23 07:09:23;;;;;;;;;;;;;;;24.16;56.47;100032.72;5074003;28;19916;-67
2022/07/23 07:11:49;;;;;;;;;;;;;;;24.16;56.32;100030.84;5074360;28;19916;-66
2022/07/23 07:14:14;;;;;;;;;;;;;;;24.16;56.31;100028.13;5074296;28;20324;-66
2022/07/23 07:16:39;;;;;;;;;;;;;;;24.16;56.33;100028.13;5074259;28;20313;-66
2022/07/23 07:19:04;;;;;;;;;;;;;;;24.17;56.28;100028.91;5074217;28;19922;-66
2022/07/23 07:21:30;;;;;;;;;;;;;;;24.17;56.08;100027.00;5074196;28;20359;-66
2022/07/23 07:23:55;;;;;;;;;;;;;;;24.17;56.07;100024.25;5073551;28;20309;-66
2022/07/23 07:26:20;;;;;;;;;;;;;;;24.15;56.33;100021.00;5073825;28;19916;-66
2022/07/23 07:28:45;;;;;;;;;;;;;;;24.16;55.97;100025.38;5073995;28;19917;-67
2022/07/23 07:31:13;;;;;;;;;;;;;;;24.16;56.32;100019.91;5073158;28;21673;-67
2022/07/23 07:33:38;;;;;;;;;;;;;;;24.18;55.82;100031.38;5073827;28;19923;-67
2022/07/23 07:36:04;;;;;;;;;;;;;;;24.15;56.01;100018.28;5073946;28;20277;-67
2022/07/23 07:38:29;;;;;;;;;;;;;;;24.16;56.00;100017.19;5072656;28;19970;-66
2022/07/23 07:40:54;;;;;;;;;;;;;;;24.16;56.24;100019.91;5073955;28;19923;-66
2022/07/23 07:43:19;;;;;;;;;;;;;;;24.17;56.11;100018.81;5073973;28;20335;-66
2022/07/23 07:45:45;;;;;;;;;;;;;;;24.15;55.92;100015.56;5073629;28;19924;-66
2022/07/23 07:48:10;;;;;;;;;;;;;;;24.17;56.16;100007.06;5073857;28;19917;-67
2022/07/23 07:50:35;;;;;;;;;;;;;;;24.15;56.21;100010.09;5073851;28;20381;-67
2022/07/23 07:53:00;;;;;;;;;;;;;;;24.16;56.11;100006.28;5073779;28;19924;-67
2022/07/23 07:55:26;;;;;;;;;;;;;;;24.16;56.33;100017.19;5073548;28;20436;-67
2022/07/23 07:57:52;;;;;;;;;;;;;;;24.16;56.40;100011.72;5073495;28;20370;-67
2022/07/23 08:00:17;;;;;;;;;;;;;;;24.15;56.59;100009.28;5073498;28;20011;-66
2022/07/23 08:02:49;;;;;;;;;;;;;;;24.15;56.58;100001.91;5072818;28;19921;-66
2022/07/23 08:05:14;;;;;;;;;;;;;;;24.15;56.68;99999.16;5073737;28;20001;-66
2022/07/23 08:07:40;;;;;;;;;;;;;;;24.16;56.46;99989.88;5085421;28;20392;-66
2022/07/23 08:10:08;;;;;;;;;;;;;;;24.14;56.55;99992.06;5093722;28;19923;-66
2022/07/23 08:12:39;;;;;;;;;;;;;;;24.16;56.40;99995.34;5093519;28;19923;-67
2022/07/23 08:15:05;;;;;;;;;;;;;;;24.16;56.74;99998.09;5093826;28;19942;-67
2022/07/23 08:17:31;;;;;;;;;;;;;;;24.16;56.47;99994.50;5094293;28;20417;-67
2022/07/23 08:19:56;;;;;;;;;;;;;;;24.16;56.73;99995.34;5093432;28;19970;-67
2022/07/23 08:22:21;;;;;;;;;;;;;;;24.15;56.40;99999.16;5093746;28;19926;-67
2022/07/23 08:24:46;;;;;;;;;;;;;;;24.16;56.59;99997.25;5093433;28;20367;-67
2022/07/23 08:27:12;;;;;;;;;;;;;;;24.15;56.21;99993.72;5093340;28;19989;-67
2022/07/23 08:29:37;;;;;;;;;;;;;;;24.16;56.71;99994.50;5093594;28;20011;-67
2022/07/23 08:32:02;;;;;;;;;;;;;;;24.17;56.32;99986.03;5093625;28;19916;-67
2022/07/23 08:34:27;;;;;;;;;;;;;;;24.17;56.68;99986.03;5093623;28;19916;-67
2022/07/23 08:36:53;;;;;;;;;;;;;;;24.16;56.74;99984.44;5093640;28;19920;-67
2022/07/23 08:39:18;;;;;;;;;;;;;;;24.16;56.68;99980.88;5093241;28;19916;-67
2022/07/23 08:41:43;;;;;;;;;;;;;;;24.15;56.57;99974.59;5093603;28;19923;-67
2022/07/23 08:44:09;;;;;;;;;;;;;;;24.16;57.04;99978.13;5093592;28;20371;-67
2022/07/23 08:46:34;;;;;;;;;;;;;;;24.16;56.61;99981.69;5093542;28;19916;-67
2022/07/23 08:48:59;;;;;;;;;;;;;;;24.15;56.64;99982.78;5093092;28;20252;-67
2022/07/23 08:51:25;;;;;;;;;;;;;;;24.15;56.09;99982.78;5093255;28;19916;-66
2022/07/23 08:53:50;;;;;;;;;;;;;;;24.12;56.18;99980.63;5092318;28;20387;-66
2022/07/23 08:56:15;;;;;;;;;;;;;;;24.12;56.67;99986.09;5093858;28;19924;-66
2022/07/23 08:58:41;;;;;;;;;;;;;;;24.12;56.17;99977.91;5093395;28;20514;-66
2022/07/23 09:01:06;;;;;;;;;;;;;;;24.16;56.02;99975.41;5093201;28;19916;-66
2022/07/23 09:03:32;;;;;;;;;;;;;;;24.16;55.95;99968.06;5093452;28;19964;-66
2022/07/23 09:05:57;;;;;;;;;;;;;;;24.17;56.61;99969.66;5092966;28;19916;-66
2022/07/23 09:08:23;;;;;;;;;;;;;;;24.18;56.16;99970.47;5075565;28;19923;-66
2022/07/23 09:10:49;;;;;;;;;;;;;;;24.18;56.07;99971.31;5072790;28;19917;-66
2022/07/23 09:13:23;;;;;;;;;;;;;;;24.16;56.10;99961.75;5072734;28;20007;-66
2022/07/23 09:15:52;;;;;;;;;;;;;;;24.17;57.15;99963.41;5076304;28;19916;-66
2022/07/23 09:18:17;;;;;;;;;;;;;;;24.14;57.03;99958.50;5076296;28;19999;-66
2022/07/23 09:20:45;;;;;;;;;;;;;;;24.11;56.98;99953.63;5076508;28;19948;-66
2022/07/23 09:23:11;;;;;;;;;;;;;;;24.07;57.24;99953.38;5076214;28;20346;-66
2022/07/23 09:25:36;;;;;;;;;;;;;;;24.08;57.17;99955.03;5076234;28;19920;-66
2022/07/23 09:28:02;;;;;;;;;;;;;;;24.12;57.29;99955.25;5076304;28;20328;-66
2022/07/23 09:30:31;;;;;;;;;;;;;;;24.05;57.67;99941.94;5076068;28;19962;-67
2022/07/23 09:33:12;;;;;;;;;;;;;;;24.03;57.48;99946.88;5076049;28;19917;-67
2022/07/23 09:35:53;;;;;;;;;;;;;;;23.95;57.54;99939.31;5076309;28;19963;-67
2022/07/23 09:38:19;;;;;;;;;;;;;;;23.91;57.87;99950.00;5075979;28;19944;-67
2022/07/23 09:40:45;;;;;;;;;;;;;;;23.96;57.81;99936.31;5075950;28;19920;-67
2022/07/23 09:43:10;;;;;;;;;;;;;;;23.99;57.94;99943.91;5076245;28;19917;-67
2022/07/23 09:45:38;;;;;;;;;;;;;;;24.00;57.93;99942.00;5074914;28;19951;-67
2022/07/23 09:48:16;;;;;;;;;;;;;;;24.09;58.02;99934.00;5076030;28;19962;-67
2022/07/23 09:50:42;;;;;;;;;;;;;;;24.11;57.79;99939.97;5076068;28;19987;-67
2022/07/23 09:53:07;;;;;;;;;;;;;;;24.14;57.78;99940.19;5075961;28;20347;-67
2022/07/23 09:55:36;;;;;;;;;;;;;;;24.16;57.44;99929.84;5075967;28;19923;-67
2022/07/23 09:58:02;;;;;;;;;;;;;;;24.21;57.18;99936.31;5076163;28;19999;-67
2022/07/23 10:00:27;;;;;;;;;;;;;;;24.22;56.70;99927.84;5075579;28;20432;-67
2022/07/23 10:02:52;;;;;;;;;;;;;;;24.24;56.47;99924.84;5075814;28;19916;-67
2022/07/23 10:05:17;;;;;;;;;;;;;;;24.25;56.82;99926.44;5075447;28;20355;-67
2022/07/23 10:07:43;;;;;;;;;;;;;;;24.23;56.96;99917.72;5086841;28;19916;-67
2022/07/23 10:10:08;;;;;;;;;;;;;;;24.25;56.61;99920.97;5094349;28;19920;-67
2022/07/23 10:15:03;;;;;;;;;;;;;;;24.24;57.23;99908.44;5095900;28;19928;-67
2022/07/23 10:17:28;;;;;;;;;;;;;;;24.24;57.22;99911.19;5095451;28;20293;-67
2022/07/23 10:19:54;;;;;;;;;;;;;;;24.18;57.26;99911.25;5095454;28;19998;-67
2022/07/23 10:22:22;;;;;;;;;;;;;;;24.22;57.21;99916.13;5095632;28;19916;-67
2022/07/23 10:25:00;;;;;;;;;;;;;;;24.18;57.22;99913.13;5093829;28;19969;-67
2022/07/23 10:27:25;;;;;;;;;;;;;;;24.21;56.69;99915.28;5094989;28;19916;-67
2022/07/23 10:30:00;;;;;;;;;;;;;;;24.22;56.79;99914.19;5095500;28;19970;-67
2022/07/23 10:32:26;;;;;;;;;;;;;;;24.24;56.52;99916.66;5095429;28;19916;-67
2022/07/23 10:35:03;;;;;;;;;;;;;;;24.21;56.53;99909.81;5095116;28;19916;-67
2022/07/23 10:37:32;;;;;;;;;;;;;;;24.27;56.27;99913.34;5095359;28;20089;-67
2022/07/23 10:40:12;;;;;;;;;;;;;;;24.26;55.99;99912.50;5095006;28;19947;-67
2022/07/23 10:42:38;;;;;;;;;;;;;;;24.23;56.46;99907.63;5094877;28;20346;-67
2022/07/23 10:45:23;;;;;;;;;;;;;;;24.23;56.70;99899.44;5095170;28;20011;-67
2022/07/23 10:47:50;;;;;;;;;;;;;;;24.19;56.86;99898.38;5094341;28;19941;-67
2022/07/23 10:50:23;;;;;;;;;;;;;;;24.15;57.11;99900.09;5095024;28;20025;-67
2022/07/23 10:53:15;;;;;;;;;;;;;;;24.15;57.01;99900.09;5094748;28;19916;-67
2022/07/23 10:55:40;;;;;;;;;;;;;;;24.13;56.85;99891.38;5094955;28;19916;-67
2022/07/23 10:58:06;;;;;;;;;;;;;;;24.13;57.01;99892.19;5094609;28;20438;-67
2022/07/23 11:00:31;;;;;;;;;;;;;;;24.10;57.15;99890.03;5094899;28;20093;-67
2022/07/23 11:03:00;;;;;;;;;;;;;;;24.09;57.20;99888.38;5094876;28;20434;-67
2022/07/23 11:05:26;;;;;;;;;;;;;;;24.11;57.00;99888.94;5094880;28;19916;-67
2022/07/23 11:08:03;;;;;;;;;;;;;;;24.10;57.09;99887.28;5082556;28;19917;-67
2022/07/23 11:10:33;;;;;;;;;;;;;;;24.11;56.69;99888.94;5074439;28;19924;-67
2022/07/23 11:13:18;;;;;;;;;;;;;;;24.13;56.91;99878.53;5074383;28;19923;-67
2022/07/23 11:16:05;;;;;;;;;;;;;;;24.11;56.71;99878.03;5073920;28;20282;-67
2022/07/23 11:18:39;;;;;;;;;;;;;;;24.13;56.73;99880.47;5073984;28;19957;-67
2022/07/23 11:21:34;;;;;;;;;;;;;;;24.15;56.50;99879.06;5074261;28;19979;-67
2022/07/23 11:24:08;;;;;;;;;;;;;;;24.15;56.25;99879.06;5031668;28;19964;-67
2022/07/23 11:26:49;;;;;;;;;;;;;;;24.20;55.94;99883.66;5031988;28;19918;-67
2022/07/23 11:29:27;;;;;;;;;;;;;;;24.23;55.78;99887.69;5032085;28;19956;-67
2022/07/23 11:31:53;;;;;;;;;;;;;;;24.24;55.40;99881.16;5031860;28;19975;-67
2022/07/23 11:34:27;;;;;;;;;;;;;;;24.27;55.18;99886.84;5031993;28;19949;-67
2022/07/23 11:36:53;;;;;;;;;;;;;;;24.26;55.17;99890.66;5031728;28;19952;-67
2022/07/23 11:39:18;;;;;;;;;;;;;;;24.27;55.22;99910.59;5031815;28;20316;-67
2022/07/23 11:41:43;;;;;;;;;;;;;;;24.25;55.19;99932.75;5031954;28;19917;-67
2022/07/23 11:44:24;;;;;;;;;;;;;;;24.24;55.30;99898.34;5031635;28;20306;-67
2022/07/23 11:46:56;;;;;;;;;;;;;;;24.28;55.35;99912.22;5031612;28;19917;-67
2022/07/23 11:49:21;;;;;;;;;;;;;;;24.26;55.09;99907.03;5031643;28;19917;-67
2022/07/23 11:51:47;;;;;;;;;;;;;;;24.27;55.21;99905.16;5015346;28;20007;-67
2022/07/23 11:54:12;;;;;;;;;;;;;;;24.26;55.47;99895.31;5031677;28;20407;-67
2022/07/23 11:56:37;;;;;;;;;;;;;;;24.27;55.57;99892.28;5031522;28;19917;-67
2022/07/23 11:59:02;;;;;;;;;;;;;;;24.29;55.37;99889.28;5031448;28;19917;-67
2022/07/23 12:01:28;;;;;;;;;;;;;;;24.26;55.47;99878.94;5052698;28;19924;-67
2022/07/23 12:03:53;;;;;;;;;;;;;;;24.26;55.67;99877.00;5053368;28;20425;-67
2022/07/23 12:06:18;;;;;;;;;;;;;;;24.25;55.82;99871.84;5053670;28;19916;-67
2022/07/23 12:08:43;;;;;;;;;;;;;;;24.24;55.53;99859.31;5053471;28;20363;-67
2022/07/23 12:11:11;;;;;;;;;;;;;;;24.27;55.49;99866.91;5053376;28;19940;-67
2022/07/23 12:13:36;;;;;;;;;;;;;;;24.24;55.89;99859.31;5052093;28;20394;-67
2022/07/23 12:16:02;;;;;;;;;;;;;;;24.22;56.41;99862.31;5053580;28;19921;-67
2022/07/23 12:18:28;;;;;;;;;;;;;;;24.19;56.34;99860.97;5053578;28;20442;-67
2022/07/23 12:20:54;;;;;;;;;;;;;;;24.20;56.57;99861.81;5052024;28;19916;-67
2022/07/23 12:23:21;;;;;;;;;;;;;;;24.19;56.67;99858.25;5053654;28;20359;-67
2022/07/23 12:25:46;;;;;;;;;;;;;;;24.17;56.51;99855.00;5083931;28;19977;-67
2022/07/23 12:28:18;;;;;;;;;;;;;;;24.15;56.66;99859.13;5093312;28;20324;-67
2022/07/23 12:30:44;;;;;;;;;;;;;;;24.16;56.81;99867.03;5093731;28;19916;-67
2022/07/23 12:33:10;;;;;;;;;;;;;;;24.12;56.93;99860.53;5093659;28;20377;-67
2022/07/23 12:35:37;;;;;;;;;;;;;;;24.19;56.86;99858.25;5093655;28;19923;-67
2022/07/23 12:38:05;;;;;;;;;;;;;;;24.22;56.98;99865.06;5093545;28;19927;-67